sensor_id;sensor_type;location;lat;lon;timestamp;pressure;altitude;pressure_sealevel;temperature;humidity
3968;BME280;9221;42.646;23.380;2023-06-04T00:02:19;94681.72;;;18.01;95.39
3968;BME280;9221;42.646;23.380;2023-06-04T00:04:44;94638.16;;;17.72;95.12
3968;BME280;9221;42.646;23.380;2023-06-04T00:07:10;94707.41;;;18.02;95.17
3968;BME280;9221;42.646;23.380;2023-06-04T00:09:35;94691.38;;;18.02;95.17
3968;BME280;9221;42.646;23.380;2023-06-04T00:12:02;94643.38;;;17.80;94.36
3968;BME280;9221;42.646;23.380;2023-06-04T00:14:27;94719.38;;;18.13;93.85
3968;BME280;9221;42.646;23.380;2023-06-04T00:16:53;94630.03;;;17.80;93.49
3968;BME280;9221;42.646;23.380;2023-06-04T00:19:18;94610.78;;;17.56;93.34
3968;BME280;9221;42.646;23.380;2023-06-04T00:21:44;94682.34;;;18.03;93.19
3968;BME280;9221;42.646;23.380;2023-06-04T00:24:10;94673.72;;;17.79;93.17
3968;BME280;9221;42.646;23.380;2023-06-04T00:26:37;94634.78;;;17.56;93.82
3968;BME280;9221;42.646;23.380;2023-06-04T00:29:03;94633.38;;;17.39;94.04
3968;BME280;9221;42.646;23.380;2023-06-04T00:31:28;94622.91;;;17.37;94.52
3968;BME280;9221;42.646;23.380;2023-06-04T00:33:53;94592.94;;;17.14;94.69
3968;BME280;9221;42.646;23.380;2023-06-04T00:36:19;94714.75;;;17.78;94.74
3968;BME280;9221;42.646;23.380;2023-06-04T00:38:45;94675.19;;;17.82;94.35
3968;BME280;9221;42.646;23.380;2023-06-04T00:41:11;94697.59;;;17.87;94.71
3968;BME280;9221;42.646;23.380;2023-06-04T00:43:36;94670.28;;;17.85;95.17
3968;BME280;9221;42.646;23.380;2023-06-04T00:46:02;94706.38;;;17.81;94.93
3968;BME280;9221;42.646;23.380;2023-06-04T00:48:30;94661.38;;;17.78;95.24
3968;BME280;9221;42.646;23.380;2023-06-04T00:50:56;94663.31;;;17.84;95.43
3968;BME280;9221;42.646;23.380;2023-06-04T00:53:23;94641.47;;;17.74;95.18
3968;BME280;9221;42.646;23.380;2023-06-04T00:55:49;94669.59;;;17.98;95.00
3968;BME280;9221;42.646;23.380;2023-06-04T00:58:15;94694.19;;;17.93;95.00
3968;BME280;9221;42.646;23.380;2023-06-04T01:00:44;94689.59;;;17.87;95.40
3968;BME280;9221;42.646;23.380;2023-06-04T01:03:18;94717.41;;;17.78;95.97
3968;BME280;9221;42.646;23.380;2023-06-04T01:05:52;94666.50;;;17.73;96.91
3968;BME280;9221;42.646;23.380;2023-06-04T01:08:20;94637.19;;;17.51;97.71
3968;BME280;9221;42.646;23.380;2023-06-04T01:10:52;94711.44;;;17.76;98.33
3968;BME280;9221;42.646;23.380;2023-06-04T01:13:18;94650.84;;;17.20;98.73
3968;BME280;9221;42.646;23.380;2023-06-04T01:15:43;94608.25;;;17.05;99.64
3968;BME280;9221;42.646;23.380;2023-06-04T01:18:09;94670.75;;;17.24;100.00
3968;BME280;9221;42.646;23.380;2023-06-04T01:20:42;94666.09;;;17.11;100.00
3968;BME280;9221;42.646;23.380;2023-06-04T01:26:00;94633.66;;;17.22;100.00
3968;BME280;9221;42.646;23.380;2023-06-04T01:28:28;94638.31;;;17.42;100.00
3968;BME280;9221;42.646;23.380;2023-06-04T01:30:55;94709.53;;;17.70;100.00
3968;BME280;9221;42.646;23.380;2023-06-04T01:33:22;94694.19;;;17.72;100.00
3968;BME280;9221;42.646;23.380;2023-06-04T01:35:47;94686.31;;;17.85;99.63
3968;BME280;9221;42.646;23.380;2023-06-04T01:38:13;94712.28;;;17.55;98.99
3968;BME280;9221;42.646;23.380;2023-06-04T01:40:39;94681.72;;;17.36;99.74
3968;BME280;9221;42.646;23.380;2023-06-04T01:43:04;94701.78;;;17.32;99.62
3968;BME280;9221;42.646;23.380;2023-06-04T01:45:30;94681.84;;;17.06;99.87
3968;BME280;9221;42.646;23.380;2023-06-04T01:47:55;94734.59;;;16.96;99.53
3968;BME280;9221;42.646;23.380;2023-06-04T01:50:22;94657.56;;;16.64;97.91
3968;BME280;9221;42.646;23.380;2023-06-04T01:52:47;94680.03;;;16.91;97.97
3968;BME280;9221;42.646;23.380;2023-06-04T01:55:15;94658.38;;;16.65;97.54
3968;BME280;9221;42.646;23.380;2023-06-04T01:57:42;94691.88;;;16.89;97.18
3968;BME280;9221;42.646;23.380;2023-06-04T02:00:10;94717.22;;;17.00;97.21
3968;BME280;9221;42.646;23.380;2023-06-04T02:02:36;94652.47;;;16.84;97.21
3968;BME280;9221;42.646;23.380;2023-06-04T02:05:06;94643.31;;;16.72;97.12
3968;BME280;9221;42.646;23.380;2023-06-04T02:07:38;94651.00;;;16.97;96.93
3968;BME280;9221;42.646;23.380;2023-06-04T02:10:08;94700.28;;;17.22;96.81
3968;BME280;9221;42.646;23.380;2023-06-04T02:12:36;94701.22;;;17.36;96.72
3968;BME280;9221;42.646;23.380;2023-06-04T02:15:03;94652.72;;;17.04;96.93
3968;BME280;9221;42.646;23.380;2023-06-04T02:17:29;94737.69;;;17.14;96.66
3968;BME280;9221;42.646;23.380;2023-06-04T02:19:58;94660.38;;;16.92;97.28
3968;BME280;9221;42.646;23.380;2023-06-04T02:22:24;94749.88;;;17.23;97.83
3968;BME280;9221;42.646;23.380;2023-06-04T02:24:49;94646.75;;;16.87;97.83
3968;BME280;9221;42.646;23.380;2023-06-04T02:27:15;94706.06;;;17.11;98.41
3968;BME280;9221;42.646;23.380;2023-06-04T02:29:41;94674.72;;;16.91;98.19
3968;BME280;9221;42.646;23.380;2023-06-04T02:32:07;94696.03;;;16.62;99.40
3968;BME280;9221;42.646;23.380;2023-06-04T02:34:33;94605.84;;;16.22;100.00
3968;BME280;9221;42.646;23.380;2023-06-04T02:37:02;94711.28;;;16.68;100.00
3968;BME280;9221;42.646;23.380;2023-06-04T02:39:28;94709.91;;;16.42;100.00
3968;BME280;9221;42.646;23.380;2023-06-04T02:41:54;94727.34;;;16.74;100.00
3968;BME280;9221;42.646;23.380;2023-06-04T02:44:19;94671.97;;;16.40;100.00
3968;BME280;9221;42.646;23.380;2023-06-04T02:46:45;94728.53;;;16.72;100.00
3968;BME280;9221;42.646;23.380;2023-06-04T02:49:11;94729.63;;;16.63;100.00
3968;BME280;9221;42.646;23.380;2023-06-04T02:51:42;94642.47;;;16.05;100.00
3968;BME280;9221;42.646;23.380;2023-06-04T02:54:08;94706.34;;;16.50;100.00
3968;BME280;9221;42.646;23.380;2023-06-04T02:56:35;94683.09;;;16.44;100.00
3968;BME280;9221;42.646;23.380;2023-06-04T02:59:01;94761.41;;;16.79;100.00
3968;BME280;9221;42.646;23.380;2023-06-04T03:01:27;94736.53;;;16.87;100.00
3968;BME280;9221;42.646;23.380;2023-06-04T03:03:53;94689.03;;;16.61;100.00
3968;BME280;9221;42.646;23.380;2023-06-04T03:06:21;94777.97;;;16.89;100.00
3968;BME280;9221;42.646;23.380;2023-06-04T03:08:48;94676.38;;;16.63;100.00
3968;BME280;9221;42.646;23.380;2023-06-04T03:11:14;94733.47;;;17.05;100.00
3968;BME280;9221;42.646;23.380;2023-06-04T03:13:39;94765.25;;;17.21;99.63
3968;BME280;9221;42.646;23.380;2023-06-04T03:16:05;94700.53;;;16.91;99.13
3968;BME280;9221;42.646;23.380;2023-06-04T03:18:39;94770.97;;;17.18;98.83
3968;BME280;9221;42.646;23.380;2023-06-04T03:21:05;94699.69;;;16.90;99.01
3968;BME280;9221;42.646;23.380;2023-06-04T03:23:32;94743.94;;;17.21;99.37
3968;BME280;9221;42.646;23.380;2023-06-04T03:25:57;94785.94;;;17.04;98.46
3968;BME280;9221;42.646;23.380;2023-06-04T03:28:23;94776.13;;;17.05;98.84
3968;BME280;9221;42.646;23.380;2023-06-04T03:30:48;94766.38;;;16.97;99.57
3968;BME280;9221;42.646;23.380;2023-06-04T03:33:13;94746.00;;;16.89;100.00
3968;BME280;9221;42.646;23.380;2023-06-04T03:35:42;94669.06;;;16.35;100.00
3968;BME280;9221;42.646;23.380;2023-06-04T03:38:07;94718.81;;;16.64;100.00
3968;BME280;9221;42.646;23.380;2023-06-04T03:40:32;94742.28;;;16.61;100.00
3968;BME280;9221;42.646;23.380;2023-06-04T03:42:58;94720.66;;;16.64;100.00
3968;BME280;9221;42.646;23.380;2023-06-04T03:45:23;94758.00;;;17.00;100.00
3968;BME280;9221;42.646;23.380;2023-06-04T03:47:49;94767.72;;;17.23;99.48
3968;BME280;9221;42.646;23.380;2023-06-04T03:50:14;94761.41;;;17.09;98.25
3968;BME280;9221;42.646;23.380;2023-06-04T03:52:40;94797.88;;;17.08;98.88
3968;BME280;9221;42.646;23.380;2023-06-04T03:55:05;94805.78;;;16.87;99.53
3968;BME280;9221;42.646;23.380;2023-06-04T03:57:31;94715.84;;;16.44;100.00
3968;BME280;9221;42.646;23.380;2023-06-04T03:59:57;94744.06;;;16.68;100.00
3968;BME280;9221;42.646;23.380;2023-06-04T04:02:23;94733.88;;;16.72;100.00
3968;BME280;9221;42.646;23.380;2023-06-04T04:04:48;94752.97;;;16.90;100.00
3968;BME280;9221;42.646;23.380;2023-06-04T04:07:15;94737.97;;;17.04;99.33
3968;BME280;9221;42.646;23.380;2023-06-04T04:09:40;94783.31;;;17.41;98.83
3968;BME280;9221;42.646;23.380;2023-06-04T04:12:06;94795.06;;;17.47;98.44
3968;BME280;9221;42.646;23.380;2023-06-04T04:14:32;94744.78;;;17.07;97.91
3968;BME280;9221;42.646;23.380;2023-06-04T04:16:57;94787.28;;;17.30;98.78
3968;BME280;9221;42.646;23.380;2023-06-04T04:19:22;94844.81;;;17.24;99.07
3968;BME280;9221;42.646;23.380;2023-06-04T04:21:48;94748.28;;;16.92;99.05
3968;BME280;9221;42.646;23.380;2023-06-04T04:24:27;94831.59;;;17.16;99.52
3968;BME280;9221;42.646;23.380;2023-06-04T04:26:55;94752.16;;;16.90;100.00
3968;BME280;9221;42.646;23.380;2023-06-04T04:29:21;94742.47;;;16.74;100.00
3968;BME280;9221;42.646;23.380;2023-06-04T04:31:53;94789.44;;;17.05;100.00
3968;BME280;9221;42.646;23.380;2023-06-04T04:34:22;94842.44;;;17.00;100.00
3968;BME280;9221;42.646;23.380;2023-06-04T04:36:49;94806.03;;;17.37;99.83
3968;BME280;9221;42.646;23.380;2023-06-04T04:39:22;94828.00;;;17.39;98.97
3968;BME280;9221;42.646;23.380;2023-06-04T04:41:49;94718.41;;;16.97;98.81
3968;BME280;9221;42.646;23.380;2023-06-04T04:44:14;94769.53;;;17.37;98.43
3968;BME280;9221;42.646;23.380;2023-06-04T04:46:40;94740.44;;;17.21;97.90
3968;BME280;9221;42.646;23.380;2023-06-04T04:49:05;94741.06;;;17.23;98.18
3968;BME280;9221;42.646;23.380;2023-06-04T04:51:31;94733.84;;;17.17;97.32
3968;BME280;9221;42.646;23.380;2023-06-04T04:53:57;94788.16;;;17.52;97.88
3968;BME280;9221;42.646;23.380;2023-06-04T04:56:25;94791.59;;;17.68;97.33
3968;BME280;9221;42.646;23.380;2023-06-04T04:58:51;94751.97;;;17.43;96.43
3968;BME280;9221;42.646;23.380;2023-06-04T05:01:17;94752.06;;;17.35;96.60
3968;BME280;9221;42.646;23.380;2023-06-04T05:03:42;94746.88;;;17.12;95.79
3968;BME280;9221;42.646;23.380;2023-06-04T05:06:08;94747.22;;;17.23;96.07
3968;BME280;9221;42.646;23.380;2023-06-04T05:08:33;94767.47;;;17.54;96.07
3968;BME280;9221;42.646;23.380;2023-06-04T05:10:58;94759.59;;;17.68;94.07
3968;BME280;9221;42.646;23.380;2023-06-04T05:13:24;94773.00;;;17.74;93.65
3968;BME280;9221;42.646;23.380;2023-06-04T05:15:49;94766.13;;;17.65;92.92
3968;BME280;9221;42.646;23.380;2023-06-04T05:18:18;94790.97;;;17.87;92.85
3968;BME280;9221;42.646;23.380;2023-06-04T05:20:46;94799.16;;;17.86;93.28
3968;BME280;9221;42.646;23.380;2023-06-04T05:23:11;94840.13;;;17.78;93.58
3968;BME280;9221;42.646;23.380;2023-06-04T05:25:38;94765.56;;;17.48;93.38
3968;BME280;9221;42.646;23.380;2023-06-04T05:28:03;94810.22;;;17.83;93.33
3968;BME280;9221;42.646;23.380;2023-06-04T05:30:31;94904.16;;;17.78;93.10
3968;BME280;9221;42.646;23.380;2023-06-04T05:32:56;94772.22;;;17.59;92.78
3968;BME280;9221;42.646;23.380;2023-06-04T05:35:22;94813.22;;;17.95;92.58
3968;BME280;9221;42.646;23.380;2023-06-04T05:37:47;94739.19;;;17.38;93.05
3968;BME280;9221;42.646;23.380;2023-06-04T05:40:18;94830.38;;;17.85;93.52
3968;BME280;9221;42.646;23.380;2023-06-04T05:42:44;94838.28;;;17.93;93.85
3968;BME280;9221;42.646;23.380;2023-06-04T05:45:09;94824.28;;;17.91;93.64
3968;BME280;9221;42.646;23.380;2023-06-04T05:47:35;94805.97;;;17.88;93.15
3968;BME280;9221;42.646;23.380;2023-06-04T05:50:00;94794.28;;;17.89;91.74
3968;BME280;9221;42.646;23.380;2023-06-04T05:52:26;94810.94;;;18.13;90.87
3968;BME280;9221;42.646;23.380;2023-06-04T05:54:51;94802.94;;;18.13;89.95
3968;BME280;9221;42.646;23.380;2023-06-04T05:57:17;94839.09;;;18.37;89.98
3968;BME280;9221;42.646;23.380;2023-06-04T05:59:42;94799.38;;;18.27;89.49
3968;BME280;9221;42.646;23.380;2023-06-04T06:02:08;94841.34;;;18.62;88.10
3968;BME280;9221;42.646;23.380;2023-06-04T06:04:33;94844.69;;;18.71;88.23
3968;BME280;9221;42.646;23.380;2023-06-04T06:06:59;94870.00;;;18.75;87.58
3968;BME280;9221;42.646;23.380;2023-06-04T06:09:24;94888.31;;;18.78;88.32
3968;BME280;9221;42.646;23.380;2023-06-04T06:11:50;94891.69;;;18.87;87.74
3968;BME280;9221;42.646;23.380;2023-06-04T06:14:15;94884.91;;;18.63;88.15
3968;BME280;9221;42.646;23.380;2023-06-04T06:16:40;94864.38;;;18.63;88.51
3968;BME280;9221;42.646;23.380;2023-06-04T06:19:06;94869.00;;;18.54;87.63
3968;BME280;9221;42.646;23.380;2023-06-04T06:21:31;94798.34;;;18.29;87.72
3968;BME280;9221;42.646;23.380;2023-06-04T06:23:57;94868.44;;;18.59;87.33
3968;BME280;9221;42.646;23.380;2023-06-04T06:26:22;94841.91;;;18.57;86.90
3968;BME280;9221;42.646;23.380;2023-06-04T06:28:49;94810.28;;;18.33;86.50
3968;BME280;9221;42.646;23.380;2023-06-04T06:31:15;94834.97;;;18.35;87.37
3968;BME280;9221;42.646;23.380;2023-06-04T06:33:40;94852.25;;;18.39;87.85
3968;BME280;9221;42.646;23.380;2023-06-04T06:36:10;94889.38;;;18.55;87.29
3968;BME280;9221;42.646;23.380;2023-06-04T06:38:37;94808.66;;;18.32;86.66
3968;BME280;9221;42.646;23.380;2023-06-04T06:41:02;94859.72;;;18.50;87.35
3968;BME280;9221;42.646;23.380;2023-06-04T06:43:28;94816.69;;;18.10;87.19
3968;BME280;9221;42.646;23.380;2023-06-04T06:45:53;94853.53;;;18.43;86.47
3968;BME280;9221;42.646;23.380;2023-06-04T06:48:18;94848.91;;;18.58;86.04
3968;BME280;9221;42.646;23.380;2023-06-04T06:50:44;94804.72;;;18.27;86.38
3968;BME280;9221;42.646;23.380;2023-06-04T06:53:09;94824.00;;;18.51;85.73
3968;BME280;9221;42.646;23.380;2023-06-04T06:55:35;94847.75;;;18.89;84.90
3968;BME280;9221;42.646;23.380;2023-06-04T06:58:00;94830.09;;;18.45;84.58
3968;BME280;9221;42.646;23.380;2023-06-04T07:00:26;94845.69;;;18.63;84.34
3968;BME280;9221;42.646;23.380;2023-06-04T07:02:53;94811.25;;;18.53;84.78
3968;BME280;9221;42.646;23.380;2023-06-04T07:05:18;94904.78;;;18.82;85.89
3968;BME280;9221;42.646;23.380;2023-06-04T07:07:44;94831.50;;;18.41;86.25
3968;BME280;9221;42.646;23.380;2023-06-04T07:10:10;94825.34;;;18.40;86.44
3968;BME280;9221;42.646;23.380;2023-06-04T07:12:35;94881.69;;;18.74;86.13
3968;BME280;9221;42.646;23.380;2023-06-04T07:15:01;94876.34;;;18.96;86.01
3968;BME280;9221;42.646;23.380;2023-06-04T07:17:26;94885.88;;;19.40;85.33
3968;BME280;9221;42.646;23.380;2023-06-04T07:19:51;94882.16;;;19.41;84.06
3968;BME280;9221;42.646;23.380;2023-06-04T07:22:17;94871.16;;;19.57;82.61
3968;BME280;9221;42.646;23.380;2023-06-04T07:24:42;94904.63;;;19.47;84.24
3968;BME280;9221;42.646;23.380;2023-06-04T07:27:12;94854.47;;;19.20;84.37
3968;BME280;9221;42.646;23.380;2023-06-04T07:29:37;94929.81;;;19.59;83.83
3968;BME280;9221;42.646;23.380;2023-06-04T07:32:03;94860.34;;;19.37;83.96
3968;BME280;9221;42.646;23.380;2023-06-04T07:34:28;94858.16;;;19.13;84.31
3968;BME280;9221;42.646;23.380;2023-06-04T07:36:53;94858.53;;;19.03;85.78
3968;BME280;9221;42.646;23.380;2023-06-04T07:39:19;94907.28;;;19.40;85.63
3968;BME280;9221;42.646;23.380;2023-06-04T07:41:44;94781.41;;;18.71;84.00
3968;BME280;9221;42.646;23.380;2023-06-04T07:44:09;94845.00;;;19.11;84.04
3968;BME280;9221;42.646;23.380;2023-06-04T07:46:35;94882.47;;;19.24;84.10
3968;BME280;9221;42.646;23.380;2023-06-04T07:49:00;94941.41;;;19.38;84.13
3968;BME280;9221;42.646;23.380;2023-06-04T07:51:26;94796.84;;;18.48;84.08
3968;BME280;9221;42.646;23.380;2023-06-04T07:53:51;94806.28;;;18.22;84.79
3968;BME280;9221;42.646;23.380;2023-06-04T07:56:17;94867.47;;;18.88;85.44
3968;BME280;9221;42.646;23.380;2023-06-04T07:58:43;94919.75;;;19.33;85.02
3968;BME280;9221;42.646;23.380;2023-06-04T08:01:10;94919.00;;;19.39;84.76
3968;BME280;9221;42.646;23.380;2023-06-04T08:03:36;94917.16;;;19.46;84.19
3968;BME280;9221;42.646;23.380;2023-06-04T08:06:02;94955.16;;;19.63;84.56
3968;BME280;9221;42.646;23.380;2023-06-04T08:08:27;94887.28;;;19.36;84.31
3968;BME280;9221;42.646;23.380;2023-06-04T08:10:52;94925.63;;;19.91;83.84
3968;BME280;9221;42.646;23.380;2023-06-04T08:13:18;94876.03;;;19.95;82.31
3968;BME280;9221;42.646;23.380;2023-06-04T08:15:43;94884.25;;;19.87;79.31
3968;BME280;9221;42.646;23.380;2023-06-04T08:18:09;94970.13;;;19.92;81.18
3968;BME280;9221;42.646;23.380;2023-06-04T08:20:34;94875.47;;;19.58;82.38
3968;BME280;9221;42.646;23.380;2023-06-04T08:23:00;94915.41;;;20.02;81.99
3968;BME280;9221;42.646;23.380;2023-06-04T08:25:25;94915.84;;;20.05;82.89
3968;BME280;9221;42.646;23.380;2023-06-04T08:27:51;94874.59;;;19.86;82.71
3968;BME280;9221;42.646;23.380;2023-06-04T08:30:16;94879.88;;;19.79;82.48
3968;BME280;9221;42.646;23.380;2023-06-04T08:32:41;94871.63;;;19.74;82.76
3968;BME280;9221;42.646;23.380;2023-06-04T08:35:07;94954.97;;;20.13;81.87
3968;BME280;9221;42.646;23.380;2023-06-04T08:37:33;94935.06;;;20.36;81.28
3968;BME280;9221;42.646;23.380;2023-06-04T08:39:58;94956.34;;;20.57;79.89
3968;BME280;9221;42.646;23.380;2023-06-04T08:42:31;94919.94;;;20.08;81.65
3968;BME280;9221;42.646;23.380;2023-06-04T08:44:57;94950.00;;;20.03;82.10
3968;BME280;9221;42.646;23.380;2023-06-04T08:47:24;94939.06;;;19.56;82.54
3968;BME280;9221;42.646;23.380;2023-06-04T08:49:51;94941.69;;;19.85;81.67
3968;BME280;9221;42.646;23.380;2023-06-04T08:52:17;94942.22;;;19.73;80.80
3968;BME280;9221;42.646;23.380;2023-06-04T08:54:48;94895.00;;;19.52;81.38
3968;BME280;9221;42.646;23.380;2023-06-04T08:57:14;94932.53;;;19.72;81.54
3968;BME280;9221;42.646;23.380;2023-06-04T08:59:40;94940.03;;;19.84;78.10
3968;BME280;9221;42.646;23.380;2023-06-04T09:02:06;94902.78;;;19.47;77.44
3968;BME280;9221;42.646;23.380;2023-06-04T09:04:33;94900.34;;;19.52;77.92
3968;BME280;9221;42.646;23.380;2023-06-04T09:07:02;94946.66;;;19.88;76.77
3968;BME280;9221;42.646;23.380;2023-06-04T09:09:28;94907.88;;;19.77;76.39
3968;BME280;9221;42.646;23.380;2023-06-04T09:11:56;95024.22;;;20.16;76.13
3968;BME280;9221;42.646;23.380;2023-06-04T09:14:22;94917.06;;;19.68;76.50
3968;BME280;9221;42.646;23.380;2023-06-04T09:16:50;94952.69;;;20.10;76.44
3968;BME280;9221;42.646;23.380;2023-06-04T09:19:17;94962.47;;;20.38;75.78
3968;BME280;9221;42.646;23.380;2023-06-04T09:24:12;94941.44;;;20.35;73.84
3968;BME280;9221;42.646;23.380;2023-06-04T09:26:37;94905.50;;;20.02;74.60
3968;BME280;9221;42.646;23.380;2023-06-04T09:29:04;94981.03;;;20.46;74.84
3968;BME280;9221;42.646;23.380;2023-06-04T09:31:31;94909.75;;;20.45;74.20
3968;BME280;9221;42.646;23.380;2023-06-04T09:34:02;94945.66;;;20.84;71.76
3968;BME280;9221;42.646;23.380;2023-06-04T09:36:34;94962.19;;;20.94;72.53
3968;BME280;9221;42.646;23.380;2023-06-04T09:39:01;94977.81;;;20.71;72.39
3968;BME280;9221;42.646;23.380;2023-06-04T09:41:27;94955.59;;;21.04;73.09
3968;BME280;9221;42.646;23.380;2023-06-04T09:44:03;94945.25;;;21.21;71.73
3968;BME280;9221;42.646;23.380;2023-06-04T09:46:29;94996.84;;;21.09;72.59
3968;BME280;9221;42.646;23.380;2023-06-04T09:49:03;94915.56;;;20.75;72.20
3968;BME280;9221;42.646;23.380;2023-06-04T09:51:29;94942.38;;;21.22;72.19
3968;BME280;9221;42.646;23.380;2023-06-04T09:54:00;94984.84;;;21.52;72.11
3968;BME280;9221;42.646;23.380;2023-06-04T09:56:26;94946.34;;;21.98;70.57
3968;BME280;9221;42.646;23.380;2023-06-04T09:58:57;94901.25;;;21.42;70.10
3968;BME280;9221;42.646;23.380;2023-06-04T10:01:26;94947.34;;;22.11;69.98
3968;BME280;9221;42.646;23.380;2023-06-04T10:03:53;94865.19;;;22.28;68.71
3968;BME280;9221;42.646;23.380;2023-06-04T10:06:20;94953.16;;;22.53;66.58
3968;BME280;9221;42.646;23.380;2023-06-04T10:08:48;94967.88;;;23.08;66.01
3968;BME280;9221;42.646;23.380;2023-06-04T10:11:17;94880.88;;;23.39;65.12
3968;BME280;9221;42.646;23.380;2023-06-04T10:14:15;94898.00;;;23.82;64.40
3968;BME280;9221;42.646;23.380;2023-06-04T10:16:45;94903.34;;;23.26;64.75
3968;BME280;9221;42.646;23.380;2023-06-04T10:19:11;94934.81;;;23.70;63.39
3968;BME280;9221;42.646;23.380;2023-06-04T10:21:37;94925.56;;;23.84;62.60
3968;BME280;9221;42.646;23.380;2023-06-04T10:24:03;94876.56;;;23.57;63.19
3968;BME280;9221;42.646;23.380;2023-06-04T10:26:29;94931.09;;;24.08;61.19
3968;BME280;9221;42.646;23.380;2023-06-04T10:28:56;94945.47;;;24.02;61.48
3968;BME280;9221;42.646;23.380;2023-06-04T10:31:23;94942.22;;;23.30;62.85
3968;BME280;9221;42.646;23.380;2023-06-04T10:33:53;94876.03;;;22.47;65.59
3968;BME280;9221;42.646;23.380;2023-06-04T10:36:21;94884.22;;;23.16;65.19
3968;BME280;9221;42.646;23.380;2023-06-04T10:38:51;94901.38;;;23.59;63.31
3968;BME280;9221;42.646;23.380;2023-06-04T10:41:18;94897.56;;;24.04;62.10
3968;BME280;9221;42.646;23.380;2023-06-04T10:43:45;94875.81;;;23.87;62.48
3968;BME280;9221;42.646;23.380;2023-06-04T10:46:15;94934.91;;;24.19;61.41
3968;BME280;9221;42.646;23.380;2023-06-04T10:48:50;94941.03;;;24.26;62.33
3968;BME280;9221;42.646;23.380;2023-06-04T10:51:30;94932.13;;;24.25;60.69
3968;BME280;9221;42.646;23.380;2023-06-04T10:53:57;94883.88;;;23.31;63.10
3968;BME280;9221;42.646;23.380;2023-06-04T10:56:27;94948.84;;;23.78;63.50
3968;BME280;9221;42.646;23.380;2023-06-04T10:58:52;94878.72;;;23.29;62.97
3968;BME280;9221;42.646;23.380;2023-06-04T11:01:25;94921.66;;;23.61;63.16
3968;BME280;9221;42.646;23.380;2023-06-04T11:03:52;94948.31;;;24.07;61.55
3968;BME280;9221;42.646;23.380;2023-06-04T11:06:17;94929.03;;;24.10;62.21
3968;BME280;9221;42.646;23.380;2023-06-04T11:08:43;94941.81;;;23.52;63.42
3968;BME280;9221;42.646;23.380;2023-06-04T11:11:12;94921.28;;;23.14;64.68
3968;BME280;9221;42.646;23.380;2023-06-04T11:13:43;94885.13;;;22.78;64.79
3968;BME280;9221;42.646;23.380;2023-06-04T11:16:19;94822.81;;;22.62;65.11
3968;BME280;9221;42.646;23.380;2023-06-04T11:18:57;94867.84;;;22.92;64.22
3968;BME280;9221;42.646;23.380;2023-06-04T11:21:24;94942.22;;;23.30;64.35
3968;BME280;9221;42.646;23.380;2023-06-04T11:23:55;94935.56;;;23.58;62.98
3968;BME280;9221;42.646;23.380;2023-06-04T11:26:20;94929.97;;;23.16;63.87
3968;BME280;9221;42.646;23.380;2023-06-04T11:28:49;94953.22;;;23.04;65.30
3968;BME280;9221;42.646;23.380;2023-06-04T11:31:15;94929.16;;;23.15;63.87
3968;BME280;9221;42.646;23.380;2023-06-04T11:33:44;94888.53;;;22.35;64.77
3968;BME280;9221;42.646;23.380;2023-06-04T11:36:28;94954.19;;;22.84;65.21
3968;BME280;9221;42.646;23.380;2023-06-04T11:38:57;94908.66;;;22.82;64.23
3968;BME280;9221;42.646;23.380;2023-06-04T11:41:27;94891.81;;;22.69;64.49
3968;BME280;9221;42.646;23.380;2023-06-04T11:43:55;94917.31;;;22.91;65.02
3968;BME280;9221;42.646;23.380;2023-06-04T11:46:22;94930.94;;;22.96;64.19
3968;BME280;9221;42.646;23.380;2023-06-04T11:48:50;94888.59;;;22.60;65.51
3968;BME280;9221;42.646;23.380;2023-06-04T11:51:16;94895.03;;;22.84;64.44
3968;BME280;9221;42.646;23.380;2023-06-04T11:53:41;94918.81;;;23.06;63.42
3968;BME280;9221;42.646;23.380;2023-06-04T11:56:07;94925.75;;;23.45;63.21
3968;BME280;9221;42.646;23.380;2023-06-04T11:58:32;94910.63;;;23.88;60.99
3968;BME280;9221;42.646;23.380;2023-06-04T12:00:59;94929.44;;;24.07;62.02
3968;BME280;9221;42.646;23.380;2023-06-04T12:03:40;94934.91;;;24.00;61.23
3968;BME280;9221;42.646;23.380;2023-06-04T12:06:13;94888.47;;;23.68;61.77
3968;BME280;9221;42.646;23.380;2023-06-04T12:08:53;94899.94;;;23.38;63.37
3968;BME280;9221;42.646;23.380;2023-06-04T12:11:29;94918.69;;;23.01;64.77
3968;BME280;9221;42.646;23.380;2023-06-04T12:14:00;94925.56;;;22.64;65.67
3968;BME280;9221;42.646;23.380;2023-06-04T12:16:26;94896.81;;;22.26;66.96
3968;BME280;9221;42.646;23.380;2023-06-04T12:19:04;94889.19;;;22.23;66.37
3968;BME280;9221;42.646;23.380;2023-06-04T12:21:29;94933.38;;;22.41;66.90
3968;BME280;9221;42.646;23.380;2023-06-04T12:24:13;94896.59;;;22.35;66.69
3968;BME280;9221;42.646;23.380;2023-06-04T12:26:41;94944.56;;;22.38;67.65
3968;BME280;9221;42.646;23.380;2023-06-04T12:29:14;94943.72;;;22.30;67.33
3968;BME280;9221;42.646;23.380;2023-06-04T12:31:41;94892.75;;;22.17;67.64
3968;BME280;9221;42.646;23.380;2023-06-04T12:34:07;94943.25;;;22.47;66.87
3968;BME280;9221;42.646;23.380;2023-06-04T12:36:32;94963.63;;;22.16;67.25
3968;BME280;9221;42.646;23.380;2023-06-04T12:39:02;94919.38;;;22.25;68.02
3968;BME280;9221;42.646;23.380;2023-06-04T12:41:29;94899.22;;;22.03;67.67
3968;BME280;9221;42.646;23.380;2023-06-04T12:43:55;94949.22;;;22.04;68.24
3968;BME280;9221;42.646;23.380;2023-06-04T12:46:21;94925.44;;;22.07;68.55
3968;BME280;9221;42.646;23.380;2023-06-04T12:48:47;94932.28;;;21.96;69.42
3968;BME280;9221;42.646;23.380;2023-06-04T12:51:13;94929.59;;;21.96;68.53
3968;BME280;9221;42.646;23.380;2023-06-04T12:53:39;94961.28;;;21.81;68.96
3968;BME280;9221;42.646;23.380;2023-06-04T12:56:05;94931.16;;;21.72;68.97
3968;BME280;9221;42.646;23.380;2023-06-04T12:58:31;94937.84;;;22.02;68.26
3968;BME280;9221;42.646;23.380;2023-06-04T13:00:57;94885.72;;;21.77;69.04
3968;BME280;9221;42.646;23.380;2023-06-04T13:03:22;94933.09;;;22.04;68.89
3968;BME280;9221;42.646;23.380;2023-06-04T13:05:48;94893.56;;;21.79;68.68
3968;BME280;9221;42.646;23.380;2023-06-04T13:08:14;94961.81;;;22.03;68.63
3968;BME280;9221;42.646;23.380;2023-06-04T13:10:39;94941.34;;;22.09;68.26
3968;BME280;9221;42.646;23.380;2023-06-04T13:13:04;94931.50;;;21.89;67.91
3968;BME280;9221;42.646;23.380;2023-06-04T13:15:30;94895.66;;;21.63;67.80